createdAt,value
2019-02-21T00:00:42.334Z,13.88
2019-02-21T00:03:45.875Z,16.80
2019-02-21T00:06:49.446Z,17.95
2019-02-21T00:09:52.887Z,19.37
2019-02-21T00:12:56.358Z,15.98
2019-02-21T00:15:59.857Z,18.27
2019-02-21T00:19:03.384Z,17.55
2019-02-21T00:22:07.788Z,17.35
2019-02-21T00:25:11.182Z,19.57
2019-02-21T00:28:14.720Z,18.30
2019-02-21T00:31:18.189Z,14.15
2019-02-21T00:34:21.619Z,13.97
2019-02-21T00:37:25.082Z,19.37
2019-02-21T00:40:28.593Z,11.12
2019-02-21T00:43:32.023Z,17.67
2019-02-21T00:46:35.590Z,19.60
2019-02-21T00:49:39.036Z,19.00
2019-02-21T00:52:42.491Z,22.42
2019-02-21T00:55:46.003Z,16.75
2019-02-21T00:58:49.440Z,21.80
2019-02-21T01:01:52.999Z,16.40
2019-02-21T01:04:56.442Z,15.68
2019-02-21T01:07:59.900Z,16.70
2019-02-21T01:11:03.510Z,17.73
2019-02-21T01:14:08.078Z,17.00
2019-02-21T01:17:11.747Z,15.83
2019-02-21T01:20:15.252Z,20.97
2019-02-21T01:23:18.747Z,22.60
2019-02-21T01:26:22.252Z,19.67
2019-02-21T01:29:25.587Z,22.67
2019-02-21T01:32:29.152Z,19.57
2019-02-21T01:35:32.555Z,23.25
2019-02-21T01:38:35.948Z,20.12
2019-02-21T01:41:39.455Z,19.82
2019-02-21T01:44:42.896Z,24.10
2019-02-21T01:47:46.358Z,18.50
2019-02-21T01:50:49.862Z,26.40
2019-02-21T01:53:53.264Z,23.77
2019-02-21T01:56:56.763Z,21.97
2019-02-21T02:00:00.323Z,29.50
2019-02-21T02:03:03.875Z,30.25
2019-02-21T02:06:07.295Z,26.95
2019-02-21T02:09:12.243Z,26.27
2019-02-21T02:12:15.711Z,24.02
2019-02-21T02:15:19.338Z,26.57
2019-02-21T02:18:22.705Z,31.42
2019-02-21T02:21:26.111Z,36.88
2019-02-21T02:24:29.758Z,26.95
2019-02-21T02:27:33.126Z,26.27
2019-02-21T02:30:36.415Z,25.27
2019-02-21T02:33:40.022Z,33.05
2019-02-21T02:36:43.423Z,32.90
2019-02-21T02:39:46.924Z,29.50
2019-02-21T02:42:50.328Z,28.65
2019-02-21T02:45:53.725Z,26.65
2019-02-21T02:48:57.196Z,28.15
2019-02-21T02:52:00.732Z,37.55
2019-02-21T02:55:04.340Z,32.45
2019-02-21T02:58:07.881Z,37.70
2019-02-21T03:01:11.473Z,28.50
2019-02-21T03:04:15.103Z,26.02
2019-02-21T03:07:18.588Z,24.50
2019-02-21T03:10:22.193Z,29.65
2019-02-21T03:13:25.696Z,35.17
2019-02-21T03:16:29.388Z,36.38
2019-02-21T03:19:32.864Z,32.73
2019-02-21T03:22:36.306Z,36.98
2019-02-21T03:25:39.909Z,28.17
2019-02-21T03:28:43.476Z,30.50
2019-02-21T03:31:54.338Z,30.88
2019-02-21T03:34:52.219Z,32.88
2019-02-21T03:37:55.729Z,31.05
2019-02-21T03:40:59.254Z,31.62
2019-02-21T03:44:02.729Z,34.83
2019-02-21T03:47:06.035Z,33.73
2019-02-21T03:50:09.749Z,35.03
2019-02-21T03:53:14.156Z,38.50
2019-02-21T03:56:17.805Z,36.77
2019-02-21T03:59:21.468Z,38.95
2019-02-21T04:02:26.036Z,39.60
2019-02-21T04:05:29.541Z,42.62
2019-02-21T04:08:33.149Z,38.30
2019-02-21T04:11:36.602Z,38.73
2019-02-21T04:14:40.238Z,39.40
2019-02-21T04:17:43.849Z,37.63
2019-02-21T04:20:47.351Z,40.30
2019-02-21T04:23:50.815Z,38.30
2019-02-21T04:26:54.252Z,38.48
2019-02-21T04:29:57.815Z,34.95
2019-02-21T04:33:01.224Z,39.80
2019-02-21T04:36:04.866Z,39.42
2019-02-21T04:39:08.328Z,35.28
2019-02-21T04:42:11.765Z,39.90
2019-02-21T04:45:15.229Z,39.55
2019-02-21T04:48:18.634Z,42.48
2019-02-21T04:51:22.168Z,45.58
2019-02-21T04:54:25.634Z,47.17
2019-02-21T04:57:29.072Z,45.48
2019-02-21T05:00:32.532Z,39.13
2019-02-21T05:03:36.036Z,43.28
2019-02-21T05:06:39.478Z,50.85
2019-02-21T05:09:42.940Z,48.52
2019-02-21T05:12:46.740Z,46.00
2019-02-21T05:15:50.258Z,55.80
2019-02-21T05:18:53.775Z,58.13
2019-02-21T05:21:57.293Z,54.18
2019-02-21T05:25:01.685Z,54.00
2019-02-21T05:28:42.531Z,60.40
2019-02-21T05:32:11.104Z,56.18
2019-02-21T05:35:52.052Z,56.68
2019-02-21T05:39:11.604Z,61.02
2019-02-21T05:42:25.288Z,56.92
2019-02-21T05:45:40.460Z,66.12
2019-02-21T05:49:01.561Z,52.27
2019-02-21T05:52:24.337Z,60.65
2019-02-21T05:55:34.456Z,64.17
2019-02-21T05:58:53.319Z,62.27
2019-02-21T06:02:34.230Z,55.83
2019-02-21T06:05:50.714Z,64.03
2019-02-21T06:09:13.450Z,59.07
2019-02-21T06:12:42.468Z,59.80
2019-02-21T06:16:15.468Z,69.90
2019-02-21T06:19:35.449Z,66.45
2019-02-21T06:22:59.364Z,71.35
2019-02-21T06:26:31.232Z,68.33
2019-02-21T06:29:45.037Z,63.00
2019-02-21T06:32:48.572Z,72.90
2019-02-21T06:35:51.936Z,71.33
2019-02-21T06:38:55.440Z,78.07
2019-02-21T06:42:00.108Z,70.10
2019-02-21T06:45:04.082Z,69.67
2019-02-21T06:48:07.520Z,69.75
2019-02-21T06:51:11.107Z,70.95
2019-02-21T06:54:14.488Z,78.17
2019-02-21T06:57:17.991Z,70.40
2019-02-21T07:00:21.536Z,64.60
2019-02-21T07:03:25.034Z,64.95
2019-02-21T07:06:31.959Z,63.75
2019-02-21T07:09:33.735Z,63.83
2019-02-21T07:12:37.237Z,66.95
2019-02-21T07:15:40.744Z,62.93
2019-02-21T07:18:44.287Z,60.15
2019-02-21T07:21:47.874Z,62.43
2019-02-21T07:24:54.620Z,68.55
2019-02-21T07:27:58.470Z,61.88
2019-02-21T07:31:02.141Z,65.90
2019-02-21T07:34:07.104Z,68.47
2019-02-21T07:37:18.541Z,58.92
2019-02-21T07:40:19.969Z,67.15
2019-02-21T07:43:21.517Z,64.90
2019-02-21T07:46:24.980Z,65.12
2019-02-21T07:49:28.488Z,65.32
2019-02-21T07:52:32.025Z,85.40
2019-02-21T07:55:35.487Z,79.67
2019-02-21T07:58:39.706Z,66.15
2019-02-21T08:01:43.212Z,77.22
2019-02-21T08:04:46.621Z,70.90
2019-02-21T08:07:50.132Z,78.67
2019-02-21T08:10:53.519Z,81.35
2019-02-21T08:13:57.016Z,78.28
2019-02-21T08:17:01.437Z,76.33
2019-02-21T08:20:08.697Z,80.90
2019-02-21T08:23:12.437Z,75.28
2019-02-21T08:26:15.839Z,68.25
2019-02-21T08:29:20.726Z,70.15
2019-02-21T08:32:31.636Z,74.87
2019-02-21T08:35:35.051Z,71.35
2019-02-21T08:38:38.441Z,74.43
2019-02-21T08:41:42.020Z,72.62
2019-02-21T08:44:45.592Z,75.32
2019-02-21T08:47:49.057Z,75.20
2019-02-21T08:50:52.501Z,74.40
2019-02-21T08:53:55.996Z,79.10
2019-02-21T08:56:59.464Z,73.62
2019-02-21T09:00:03.214Z,80.92
2019-02-21T09:03:06.664Z,76.25
2019-02-21T09:06:10.110Z,70.00
2019-02-21T09:09:13.716Z,80.37
2019-02-21T09:12:17.185Z,76.75
2019-02-21T09:15:20.616Z,91.92
2019-02-21T09:18:24.076Z,82.70
2019-02-21T09:21:27.625Z,75.87
2019-02-21T09:24:39.181Z,77.10
2019-02-21T09:27:36.432Z,86.35
2019-02-21T09:30:42.005Z,82.02
2019-02-21T09:33:45.283Z,85.00
2019-02-21T09:36:48.680Z,88.58
2019-02-21T09:39:52.120Z,86.92
2019-02-21T09:42:55.580Z,89.20
2019-02-21T09:45:59.124Z,75.37
2019-02-21T09:49:03.106Z,71.90
2019-02-21T09:52:06.734Z,73.62
2019-02-21T09:55:11.480Z,72.40
2019-02-21T09:58:15.140Z,78.45
2019-02-21T10:01:18.587Z,66.00
2019-02-21T10:04:31.842Z,69.22
2019-02-21T10:07:27.384Z,61.33
2019-02-21T10:10:30.824Z,61.92
2019-02-21T10:13:34.600Z,64.90
2019-02-21T10:16:38.051Z,58.73
2019-02-21T10:19:41.545Z,64.53
2019-02-21T10:22:45.207Z,62.03
2019-02-21T10:25:48.944Z,60.50
2019-02-21T10:28:52.424Z,60.78
2019-02-21T10:31:55.908Z,56.25
2019-02-21T10:34:59.317Z,61.53
2019-02-21T10:38:02.716Z,53.10
2019-02-21T10:41:08.777Z,59.98
2019-02-21T10:44:11.369Z,53.15
2019-02-21T10:47:14.867Z,48.73
2019-02-21T10:50:18.572Z,48.90
2019-02-21T10:53:22.016Z,48.60
2019-02-21T10:56:25.576Z,49.03
2019-02-21T10:59:29.080Z,45.80
2019-02-21T11:02:32.587Z,40.75
2019-02-21T11:05:36.332Z,40.20
2019-02-21T11:08:39.792Z,44.73
2019-02-21T11:11:43.296Z,40.35
2019-02-21T11:14:47.830Z,41.55
2019-02-21T11:17:51.525Z,35.25
2019-02-21T11:20:54.932Z,37.08
2019-02-21T11:23:58.328Z,33.73
2019-02-21T11:27:01.830Z,38.10
2019-02-21T11:30:06.144Z,38.40
2019-02-21T11:33:09.548Z,39.05
2019-02-21T11:36:13.092Z,35.30
2019-02-21T11:39:16.657Z,37.83
2019-02-21T11:42:20.057Z,33.48
2019-02-21T11:45:23.553Z,39.15
2019-02-21T11:48:27.062Z,32.65
2019-02-21T11:51:30.465Z,34.58
2019-02-21T11:55:00.429Z,39.70
2019-02-21T12:07:58.114Z,33.98
2019-02-21T12:11:01.622Z,31.82
2019-02-21T12:14:05.166Z,28.57
2019-02-21T12:17:08.764Z,33.20
2019-02-21T12:20:12.231Z,24.32
2019-02-21T12:23:17.698Z,26.60
2019-02-21T12:26:20.985Z,26.77
2019-02-21T12:29:25.401Z,32.83
2019-02-21T12:32:28.941Z,28.70
2019-02-21T12:35:32.400Z,31.60
2019-02-21T12:38:35.944Z,30.05
2019-02-21T12:41:39.504Z,46.15
2019-02-21T12:44:43.015Z,36.80
2019-02-21T12:47:53.007Z,28.98
2019-02-21T12:50:51.860Z,31.17
2019-02-21T12:53:55.317Z,28.23
2019-02-21T12:56:58.860Z,27.30
2019-02-21T13:00:02.413Z,25.37
2019-02-21T13:03:07.708Z,29.48
2019-02-21T13:06:11.156Z,30.52
2019-02-21T13:09:14.772Z,30.17
2019-02-21T13:12:18.326Z,26.17
2019-02-21T13:15:21.732Z,24.27
2019-02-21T13:18:25.272Z,31.30
2019-02-21T13:21:28.724Z,30.43
2019-02-21T13:24:32.173Z,27.48
2019-02-21T13:27:35.675Z,30.27
2019-02-21T13:30:39.332Z,31.20
2019-02-21T13:33:42.873Z,26.25
2019-02-21T13:36:46.343Z,23.35
2019-02-21T13:39:49.748Z,29.30
2019-02-21T13:42:53.300Z,26.73
2019-02-21T13:45:56.853Z,30.40
2019-02-21T13:49:00.353Z,25.68
2019-02-21T13:52:03.964Z,31.60
2019-02-21T13:55:57.043Z,30.68
2019-02-21T13:59:21.417Z,29.35
2019-02-21T14:02:24.952Z,27.80
2019-02-21T14:05:28.424Z,25.95
2019-02-21T14:08:31.860Z,28.25
2019-02-21T14:11:35.525Z,30.72
2019-02-21T14:14:42.362Z,28.67
2019-02-21T14:17:46.609Z,29.23
2019-02-21T14:20:50.381Z,24.40
2019-02-21T14:23:53.835Z,30.50
2019-02-21T14:26:57.296Z,26.68
2019-02-21T14:30:00.742Z,26.75
2019-02-21T14:33:04.184Z,29.00
2019-02-21T14:36:15.226Z,28.35
2019-02-21T14:39:13.025Z,31.65
2019-02-21T14:42:42.391Z,34.90
2019-02-21T14:45:45.836Z,30.68
2019-02-21T14:48:49.336Z,28.05
2019-02-21T14:51:53.020Z,32.13
2019-02-21T14:54:56.511Z,35.58
2019-02-21T14:58:00.144Z,37.25
2019-02-21T15:01:05.699Z,32.55
2019-02-21T15:04:10.237Z,32.25
2019-02-21T15:07:13.700Z,30.85
2019-02-21T15:10:17.091Z,33.98
2019-02-21T15:13:21.679Z,32.70
2019-02-21T15:16:25.318Z,32.70
2019-02-21T15:19:28.824Z,35.28
2019-02-21T15:22:32.426Z,37.45
2019-02-21T15:25:35.872Z,33.20
2019-02-21T15:28:39.380Z,34.05
2019-02-21T15:31:42.935Z,33.50
2019-02-21T15:34:47.300Z,33.63
2019-02-21T15:37:50.865Z,26.60
2019-02-21T15:40:54.480Z,33.67
2019-02-21T15:43:58.012Z,28.05
2019-02-21T15:47:01.476Z,29.98
2019-02-21T15:50:05.499Z,31.17
2019-02-21T15:53:08.888Z,28.32
2019-02-21T15:56:12.389Z,30.15
2019-02-21T15:59:15.992Z,29.32
2019-02-21T16:02:19.496Z,30.85
2019-02-21T16:05:23.000Z,34.40
2019-02-21T16:08:26.504Z,31.00
2019-02-21T16:11:30.064Z,34.03
2019-02-21T16:14:33.502Z,32.85
2019-02-21T16:17:37.127Z,28.62
2019-02-21T16:20:41.046Z,32.38
2019-02-21T16:23:44.316Z,31.05
2019-02-21T16:26:48.874Z,32.23
2019-02-21T16:29:52.349Z,33.40
2019-02-21T16:32:56.772Z,26.45
2019-02-21T16:36:00.630Z,35.03
2019-02-21T16:39:05.072Z,27.07
2019-02-21T16:42:10.257Z,30.08
2019-02-21T16:45:13.956Z,34.78
2019-02-21T16:48:17.457Z,32.93
2019-02-21T16:51:22.215Z,33.13
2019-02-21T16:54:25.794Z,31.70
2019-02-21T16:57:29.454Z,41.45
2019-02-21T17:00:47.378Z,33.50
2019-02-21T17:03:38.284Z,29.02
2019-02-21T17:06:41.881Z,38.13
2019-02-21T17:09:47.100Z,33.80
2019-02-21T17:12:50.808Z,38.60
2019-02-21T17:16:01.467Z,35.73
2019-02-21T17:19:05.191Z,39.88
2019-02-21T17:22:08.985Z,35.52
2019-02-21T17:25:14.995Z,39.63
2019-02-21T17:28:19.212Z,45.17
2019-02-21T17:31:23.332Z,42.50
2019-02-21T17:34:28.681Z,44.13
2019-02-21T17:37:32.136Z,42.25
2019-02-21T17:40:35.672Z,48.92
2019-02-21T17:43:39.236Z,47.33
2019-02-21T17:46:43.138Z,47.27
2019-02-21T17:49:47.480Z,51.58
2019-02-21T17:52:51.215Z,43.55
2019-02-21T17:55:54.743Z,53.78
2019-02-21T17:58:58.339Z,38.95
2019-02-21T18:02:01.976Z,56.40
2019-02-21T18:05:05.388Z,50.38
2019-02-21T18:08:08.948Z,61.02
2019-02-21T18:11:12.760Z,62.15
2019-02-21T18:14:16.263Z,54.85
2019-02-21T18:17:19.664Z,61.35
2019-02-21T18:20:23.201Z,59.18
2019-02-21T18:23:26.868Z,62.78
2019-02-21T18:26:32.029Z,57.73
2019-02-21T18:29:35.712Z,59.80
2019-02-21T18:32:41.064Z,58.15
2019-02-21T18:35:45.630Z,60.45
2019-02-21T18:38:49.388Z,63.90
2019-02-21T18:41:52.900Z,67.58
2019-02-21T18:44:56.340Z,70.10
2019-02-21T18:47:59.800Z,65.72
2019-02-21T18:51:03.355Z,64.95
2019-02-21T18:54:06.803Z,64.50
2019-02-21T18:57:12.412Z,55.78
2019-02-21T19:00:17.120Z,61.42
2019-02-21T19:03:20.696Z,63.10
2019-02-21T19:06:24.249Z,66.40
2019-02-21T19:09:27.695Z,66.82
2019-02-21T19:12:31.204Z,71.15
2019-02-21T19:15:34.853Z,62.88
2019-02-21T19:18:38.410Z,61.30
2019-02-21T19:21:41.916Z,64.60
2019-02-21T19:24:45.417Z,65.12
2019-02-21T19:27:48.812Z,67.03
2019-02-21T19:30:56.863Z,64.42
2019-02-21T19:34:00.333Z,62.60
2019-02-21T19:37:03.832Z,62.60
2019-02-21T19:40:07.648Z,56.05
2019-02-21T19:43:11.048Z,65.92
2019-02-21T19:46:14.485Z,64.55
2019-02-21T19:49:18.058Z,62.15
2019-02-21T19:52:21.448Z,56.15
2019-02-21T19:55:25.088Z,62.62
2019-02-21T19:58:28.560Z,57.45
2019-02-21T20:01:32.159Z,60.98
2019-02-21T20:04:35.700Z,61.25
2019-02-21T20:07:39.269Z,61.15
2019-02-21T20:10:42.813Z,62.55
2019-02-21T20:13:46.376Z,73.57
2019-02-21T20:16:49.927Z,63.17
2019-02-21T20:19:53.376Z,68.60
2019-02-21T20:22:56.779Z,66.55
2019-02-21T20:26:00.397Z,64.92
2019-02-21T20:29:04.084Z,71.40
2019-02-21T20:32:07.584Z,74.00
2019-02-21T20:35:11.076Z,70.03
2019-02-21T20:38:15.641Z,77.00
2019-02-21T20:41:19.374Z,68.60
2019-02-21T20:44:23.077Z,71.72
2019-02-21T20:47:26.762Z,77.65
2019-02-21T20:50:30.447Z,71.82
2019-02-21T20:53:34.384Z,65.85
2019-02-21T20:56:38.100Z,67.30
2019-02-21T20:59:41.564Z,72.25
2019-02-21T21:02:45.003Z,66.95
2019-02-21T21:05:48.493Z,73.72
2019-02-21T21:08:53.003Z,74.70
2019-02-21T21:11:56.432Z,71.77
2019-02-21T21:14:59.892Z,70.70
2019-02-21T21:18:03.228Z,67.92
2019-02-21T21:21:06.692Z,73.52
2019-02-21T21:24:10.195Z,67.87
2019-02-21T21:27:13.840Z,69.47
2019-02-21T21:30:17.363Z,66.07
2019-02-21T21:33:21.098Z,68.87
2019-02-21T21:36:24.720Z,74.72
2019-02-21T21:39:29.148Z,67.25
2019-02-21T21:42:32.680Z,70.60
2019-02-21T21:45:36.148Z,68.83
2019-02-21T21:48:39.589Z,69.75
2019-02-21T21:51:43.185Z,65.32
2019-02-21T21:54:46.656Z,64.50
2019-02-21T21:57:50.299Z,64.07
2019-02-21T22:00:53.903Z,64.90
2019-02-21T22:03:57.368Z,60.30
2019-02-21T22:07:00.904Z,60.65
2019-02-21T22:10:05.505Z,65.35
2019-02-21T22:13:09.001Z,55.33
2019-02-21T22:16:13.459Z,55.10
2019-02-21T22:19:16.936Z,48.60
2019-02-21T22:22:20.529Z,45.65
2019-02-21T22:25:23.936Z,45.20
2019-02-21T22:28:27.535Z,49.40
2019-02-21T22:31:31.820Z,44.63
2019-02-21T22:34:35.256Z,43.05
2019-02-21T22:37:38.759Z,37.40
2019-02-21T22:40:43.228Z,38.00
2019-02-21T22:43:46.790Z,39.08
2019-02-21T22:48:02.736Z,33.48
2019-02-21T22:51:06.332Z,32.58
2019-02-21T22:54:09.901Z,32.70
2019-02-21T22:57:13.448Z,34.33
2019-02-21T23:01:09.476Z,32.85
2019-02-21T23:04:25.679Z,34.58
2019-02-21T23:08:02.463Z,27.58
2019-02-21T23:11:06.065Z,27.27
2019-02-21T23:14:09.523Z,29.12
2019-02-21T23:17:13.272Z,25.43
2019-02-21T23:20:16.732Z,26.17
2019-02-21T23:23:20.173Z,27.07
2019-02-21T23:26:23.673Z,27.05
2019-02-21T23:29:27.141Z,24.63
2019-02-21T23:32:30.780Z,26.23
2019-02-21T23:35:34.340Z,28.23
2019-02-21T23:38:37.875Z,24.47
2019-02-21T23:41:41.568Z,25.30
2019-02-21T23:44:45.159Z,25.92
2019-02-21T23:47:49.971Z,25.90
2019-02-21T23:50:53.656Z,23.77
2019-02-21T23:54:03.082Z,27.93
2019-02-21T23:57:02.584Z,20.97
